X  Close Metar Aviation Weather Data     YSDU Dubbo City Regional Airport
Temperature
10°C Temperature
9°C Dewpoint
94% Humidity



Wind
10 KM/H
6 MPH
3 M/S
5 KTS



170°
S
Current Conditions

Mostly Cloudy Mostly Cloudy
Pressure 1016.93 (hPa) - 30.03 (inHg)
Visibility 6 (mile) - 9.7 (km)
Airport
Airport-code YSDU

Location: Dubbo City Regional Airport
Distance: 100 (km)

Metar:
YSDU 151000Z AUTO 17005KT 9999 // BKN046 OVC056 OVC088 10/09 Q1017

Time: 15-06-2024 20:00 AEST